sensor_id;sensor_type;location;lat;lon;timestamp;temperature;humidity
48535;DHT22;34323;52.022;5.686;2023-05-31T00:00:40;18.50;99.90
48535;DHT22;34323;52.022;5.686;2023-05-31T00:03:06;18.50;99.90
48535;DHT22;34323;52.022;5.686;2023-05-31T00:05:32;18.50;99.90
48535;DHT22;34323;52.022;5.686;2023-05-31T00:07:57;18.50;99.90
48535;DHT22;34323;52.022;5.686;2023-05-31T00:10:23;18.60;99.90
48535;DHT22;34323;52.022;5.686;2023-05-31T00:12:48;18.70;99.90
48535;DHT22;34323;52.022;5.686;2023-05-31T00:15:14;18.70;99.90
48535;DHT22;34323;52.022;5.686;2023-05-31T00:17:39;18.80;99.90
48535;DHT22;34323;52.022;5.686;2023-05-31T00:20:05;18.80;99.90
48535;DHT22;34323;52.022;5.686;2023-05-31T00:22:31;18.80;99.90
48535;DHT22;34323;52.022;5.686;2023-05-31T00:24:56;18.80;99.90
48535;DHT22;34323;52.022;5.686;2023-05-31T00:27:22;18.70;99.90
48535;DHT22;34323;52.022;5.686;2023-05-31T00:29:48;18.70;99.90
48535;DHT22;34323;52.022;5.686;2023-05-31T00:32:13;18.60;99.90
48535;DHT22;34323;52.022;5.686;2023-05-31T00:34:39;18.60;99.90
48535;DHT22;34323;52.022;5.686;2023-05-31T00:37:05;18.50;99.90
48535;DHT22;34323;52.022;5.686;2023-05-31T00:39:30;18.60;99.90
48535;DHT22;34323;52.022;5.686;2023-05-31T00:41:56;18.60;99.90
48535;DHT22;34323;52.022;5.686;2023-05-31T00:44:21;18.60;99.90
48535;DHT22;34323;52.022;5.686;2023-05-31T00:46:48;18.50;99.90
48535;DHT22;34323;52.022;5.686;2023-05-31T00:49:14;18.40;99.90
48535;DHT22;34323;52.022;5.686;2023-05-31T00:51:40;18.20;99.90
48535;DHT22;34323;52.022;5.686;2023-05-31T00:54:07;18.10;99.90
48535;DHT22;34323;52.022;5.686;2023-05-31T00:56:33;18.10;99.90
48535;DHT22;34323;52.022;5.686;2023-05-31T00:58:59;18.10;99.90
48535;DHT22;34323;52.022;5.686;2023-05-31T01:01:25;18.00;99.90
48535;DHT22;34323;52.022;5.686;2023-05-31T01:03:54;18.00;99.90
48535;DHT22;34323;52.022;5.686;2023-05-31T01:06:22;18.10;99.90
48535;DHT22;34323;52.022;5.686;2023-05-31T01:08:49;18.10;99.90
48535;DHT22;34323;52.022;5.686;2023-05-31T01:14:32;18.10;99.90
48535;DHT22;34323;52.022;5.686;2023-05-31T01:17:14;17.90;99.90
48535;DHT22;34323;52.022;5.686;2023-05-31T01:19:46;17.80;99.90
48535;DHT22;34323;52.022;5.686;2023-05-31T01:25:22;17.70;99.90
48535;DHT22;34323;52.022;5.686;2023-05-31T01:27:52;17.80;99.90
48535;DHT22;34323;52.022;5.686;2023-05-31T01:30:20;17.80;99.90
48535;DHT22;34323;52.022;5.686;2023-05-31T01:32:47;17.80;99.90
48535;DHT22;34323;52.022;5.686;2023-05-31T01:35:14;17.70;99.90
48535;DHT22;34323;52.022;5.686;2023-05-31T01:37:40;17.40;99.90
48535;DHT22;34323;52.022;5.686;2023-05-31T01:40:06;17.40;99.90
48535;DHT22;34323;52.022;5.686;2023-05-31T01:42:32;17.40;99.90
48535;DHT22;34323;52.022;5.686;2023-05-31T01:45:00;17.30;99.90
48535;DHT22;34323;52.022;5.686;2023-05-31T01:47:26;17.20;99.90
48535;DHT22;34323;52.022;5.686;2023-05-31T01:49:53;17.10;99.90
48535;DHT22;34323;52.022;5.686;2023-05-31T01:52:19;17.00;99.90
48535;DHT22;34323;52.022;5.686;2023-05-31T01:54:45;16.80;99.90
48535;DHT22;34323;52.022;5.686;2023-05-31T01:57:11;16.80;99.90
48535;DHT22;34323;52.022;5.686;2023-05-31T01:59:38;16.80;99.90
48535;DHT22;34323;52.022;5.686;2023-05-31T02:02:05;16.80;99.90
48535;DHT22;34323;52.022;5.686;2023-05-31T02:04:31;16.70;99.90
48535;DHT22;34323;52.022;5.686;2023-05-31T02:06:57;16.80;99.90
48535;DHT22;34323;52.022;5.686;2023-05-31T02:09:23;16.80;99.90
48535;DHT22;34323;52.022;5.686;2023-05-31T02:11:49;16.90;99.90
48535;DHT22;34323;52.022;5.686;2023-05-31T02:14:15;17.00;99.90
48535;DHT22;34323;52.022;5.686;2023-05-31T02:16:40;17.00;99.90
48535;DHT22;34323;52.022;5.686;2023-05-31T02:19:06;17.10;99.90
48535;DHT22;34323;52.022;5.686;2023-05-31T02:21:35;17.20;99.90
48535;DHT22;34323;52.022;5.686;2023-05-31T02:24:01;17.20;99.90
48535;DHT22;34323;52.022;5.686;2023-05-31T02:26:26;16.90;99.90
48535;DHT22;34323;52.022;5.686;2023-05-31T02:28:52;16.80;99.90
48535;DHT22;34323;52.022;5.686;2023-05-31T02:31:17;16.70;99.90
48535;DHT22;34323;52.022;5.686;2023-05-31T02:33:43;16.80;99.90
48535;DHT22;34323;52.022;5.686;2023-05-31T02:36:09;16.80;99.90
48535;DHT22;34323;52.022;5.686;2023-05-31T02:38:35;16.80;99.90
48535;DHT22;34323;52.022;5.686;2023-05-31T02:41:00;16.80;99.90
48535;DHT22;34323;52.022;5.686;2023-05-31T02:43:26;16.90;99.90
48535;DHT22;34323;52.022;5.686;2023-05-31T02:45:51;16.80;99.90
48535;DHT22;34323;52.022;5.686;2023-05-31T02:48:17;16.70;99.90
48535;DHT22;34323;52.022;5.686;2023-05-31T02:50:43;16.70;99.90
48535;DHT22;34323;52.022;5.686;2023-05-31T02:53:08;16.70;99.90
48535;DHT22;34323;52.022;5.686;2023-05-31T02:55:34;16.70;99.90
48535;DHT22;34323;52.022;5.686;2023-05-31T02:58:00;16.60;99.90
48535;DHT22;34323;52.022;5.686;2023-05-31T03:00:26;16.50;99.90
48535;DHT22;34323;52.022;5.686;2023-05-31T03:02:51;16.40;99.90
48535;DHT22;34323;52.022;5.686;2023-05-31T03:05:17;16.40;99.90
48535;DHT22;34323;52.022;5.686;2023-05-31T03:07:43;16.50;99.90
48535;DHT22;34323;52.022;5.686;2023-05-31T03:10:08;16.60;99.90
48535;DHT22;34323;52.022;5.686;2023-05-31T03:12:35;16.70;99.90
48535;DHT22;34323;52.022;5.686;2023-05-31T03:15:01;16.70;99.90
48535;DHT22;34323;52.022;5.686;2023-05-31T03:17:27;16.70;99.90
48535;DHT22;34323;52.022;5.686;2023-05-31T03:19:52;16.60;99.90
48535;DHT22;34323;52.022;5.686;2023-05-31T03:22:18;16.60;99.90
48535;DHT22;34323;52.022;5.686;2023-05-31T03:24:44;16.50;99.90
48535;DHT22;34323;52.022;5.686;2023-05-31T03:27:10;16.50;99.90
48535;DHT22;34323;52.022;5.686;2023-05-31T03:29:38;16.60;99.90
48535;DHT22;34323;52.022;5.686;2023-05-31T03:32:04;16.50;99.90
48535;DHT22;34323;52.022;5.686;2023-05-31T03:34:30;16.40;99.90
48535;DHT22;34323;52.022;5.686;2023-05-31T03:36:55;16.50;99.90
48535;DHT22;34323;52.022;5.686;2023-05-31T03:39:21;16.60;99.90
48535;DHT22;34323;52.022;5.686;2023-05-31T03:41:46;16.50;99.90
48535;DHT22;34323;52.022;5.686;2023-05-31T03:44:12;16.40;99.90
48535;DHT22;34323;52.022;5.686;2023-05-31T03:46:37;16.30;99.90
48535;DHT22;34323;52.022;5.686;2023-05-31T03:49:03;16.30;99.90
48535;DHT22;34323;52.022;5.686;2023-05-31T03:51:31;16.20;99.90
48535;DHT22;34323;52.022;5.686;2023-05-31T03:53:56;16.30;99.90
48535;DHT22;34323;52.022;5.686;2023-05-31T03:56:22;16.20;99.90
48535;DHT22;34323;52.022;5.686;2023-05-31T03:58:48;16.20;99.90
48535;DHT22;34323;52.022;5.686;2023-05-31T04:01:13;16.20;99.90
48535;DHT22;34323;52.022;5.686;2023-05-31T04:03:39;16.10;99.90
48535;DHT22;34323;52.022;5.686;2023-05-31T04:06:04;15.90;99.90
48535;DHT22;34323;52.022;5.686;2023-05-31T04:08:30;15.90;99.90
48535;DHT22;34323;52.022;5.686;2023-05-31T04:10:56;15.90;99.90
48535;DHT22;34323;52.022;5.686;2023-05-31T04:13:21;16.00;99.90
48535;DHT22;34323;52.022;5.686;2023-05-31T04:15:47;15.90;99.90
48535;DHT22;34323;52.022;5.686;2023-05-31T04:18:12;16.10;99.90
48535;DHT22;34323;52.022;5.686;2023-05-31T04:20:38;16.40;99.90
48535;DHT22;34323;52.022;5.686;2023-05-31T04:23:03;16.30;99.90
48535;DHT22;34323;52.022;5.686;2023-05-31T04:25:29;16.20;99.90
48535;DHT22;34323;52.022;5.686;2023-05-31T04:27:56;16.20;99.90
48535;DHT22;34323;52.022;5.686;2023-05-31T04:30:22;16.10;99.90
48535;DHT22;34323;52.022;5.686;2023-05-31T04:32:49;16.20;99.90
48535;DHT22;34323;52.022;5.686;2023-05-31T04:35:17;16.20;99.90
48535;DHT22;34323;52.022;5.686;2023-05-31T04:37:42;16.20;99.90
48535;DHT22;34323;52.022;5.686;2023-05-31T04:40:08;16.20;99.90
48535;DHT22;34323;52.022;5.686;2023-05-31T04:42:36;16.40;99.90
48535;DHT22;34323;52.022;5.686;2023-05-31T04:45:03;16.40;99.90
48535;DHT22;34323;52.022;5.686;2023-05-31T04:47:35;16.50;99.90
48535;DHT22;34323;52.022;5.686;2023-05-31T04:50:01;16.60;99.90
48535;DHT22;34323;52.022;5.686;2023-05-31T04:52:28;16.50;99.90
48535;DHT22;34323;52.022;5.686;2023-05-31T04:54:59;16.40;99.90
48535;DHT22;34323;52.022;5.686;2023-05-31T04:57:25;16.50;99.90
48535;DHT22;34323;52.022;5.686;2023-05-31T04:59:55;16.40;99.90
48535;DHT22;34323;52.022;5.686;2023-05-31T05:02:24;16.40;99.90
48535;DHT22;34323;52.022;5.686;2023-05-31T05:04:49;16.50;99.90
48535;DHT22;34323;52.022;5.686;2023-05-31T05:07:16;16.50;99.90
48535;DHT22;34323;52.022;5.686;2023-05-31T05:09:42;16.60;99.90
48535;DHT22;34323;52.022;5.686;2023-05-31T05:12:08;16.50;99.90
48535;DHT22;34323;52.022;5.686;2023-05-31T05:14:34;16.40;99.90
48535;DHT22;34323;52.022;5.686;2023-05-31T05:17:00;16.30;99.90
48535;DHT22;34323;52.022;5.686;2023-05-31T05:19:26;16.50;99.90
48535;DHT22;34323;52.022;5.686;2023-05-31T05:21:51;16.30;99.90
48535;DHT22;34323;52.022;5.686;2023-05-31T05:24:17;16.20;99.90
48535;DHT22;34323;52.022;5.686;2023-05-31T05:26:43;16.40;99.90
48535;DHT22;34323;52.022;5.686;2023-05-31T05:29:09;16.30;99.90
48535;DHT22;34323;52.022;5.686;2023-05-31T05:31:35;16.30;99.90
48535;DHT22;34323;52.022;5.686;2023-05-31T05:34:00;16.30;99.90
48535;DHT22;34323;52.022;5.686;2023-05-31T05:36:26;16.40;99.90
48535;DHT22;34323;52.022;5.686;2023-05-31T05:38:52;16.40;99.90
48535;DHT22;34323;52.022;5.686;2023-05-31T05:41:17;16.40;99.90
48535;DHT22;34323;52.022;5.686;2023-05-31T05:43:43;16.30;99.90
48535;DHT22;34323;52.022;5.686;2023-05-31T05:46:08;16.40;99.90
48535;DHT22;34323;52.022;5.686;2023-05-31T05:48:34;16.40;99.90
48535;DHT22;34323;52.022;5.686;2023-05-31T05:51:00;16.60;99.90
48535;DHT22;34323;52.022;5.686;2023-05-31T05:53:25;16.60;99.90
48535;DHT22;34323;52.022;5.686;2023-05-31T05:55:52;16.60;99.90
48535;DHT22;34323;52.022;5.686;2023-05-31T05:58:18;16.70;99.90
48535;DHT22;34323;52.022;5.686;2023-05-31T06:00:44;16.80;99.90
48535;DHT22;34323;52.022;5.686;2023-05-31T06:03:11;16.60;99.90
48535;DHT22;34323;52.022;5.686;2023-05-31T06:05:37;16.70;99.90
48535;DHT22;34323;52.022;5.686;2023-05-31T06:08:02;16.80;99.90
48535;DHT22;34323;52.022;5.686;2023-05-31T06:10:28;17.10;99.90
48535;DHT22;34323;52.022;5.686;2023-05-31T06:12:53;17.20;99.90
48535;DHT22;34323;52.022;5.686;2023-05-31T06:15:20;17.40;99.90
48535;DHT22;34323;52.022;5.686;2023-05-31T06:17:45;17.40;99.90
48535;DHT22;34323;52.022;5.686;2023-05-31T06:20:14;17.40;99.90
48535;DHT22;34323;52.022;5.686;2023-05-31T06:22:39;17.50;99.90
48535;DHT22;34323;52.022;5.686;2023-05-31T06:25:05;17.70;99.90
48535;DHT22;34323;52.022;5.686;2023-05-31T06:27:31;17.70;99.90
48535;DHT22;34323;52.022;5.686;2023-05-31T06:29:56;17.80;99.90
48535;DHT22;34323;52.022;5.686;2023-05-31T06:32:29;17.80;99.90
48535;DHT22;34323;52.022;5.686;2023-05-31T06:34:54;18.00;99.90
48535;DHT22;34323;52.022;5.686;2023-05-31T06:37:21;18.10;99.90
48535;DHT22;34323;52.022;5.686;2023-05-31T06:39:49;18.20;99.90
48535;DHT22;34323;52.022;5.686;2023-05-31T06:42:15;18.20;99.90
48535;DHT22;34323;52.022;5.686;2023-05-31T06:44:42;18.30;99.90
48535;DHT22;34323;52.022;5.686;2023-05-31T06:47:08;18.40;99.90
48535;DHT22;34323;52.022;5.686;2023-05-31T06:49:33;18.40;99.90
48535;DHT22;34323;52.022;5.686;2023-05-31T06:51:59;18.40;99.90
48535;DHT22;34323;52.022;5.686;2023-05-31T06:54:26;18.30;99.90
48535;DHT22;34323;52.022;5.686;2023-05-31T06:56:52;18.40;99.90
48535;DHT22;34323;52.022;5.686;2023-05-31T06:59:17;18.50;99.90
48535;DHT22;34323;52.022;5.686;2023-05-31T07:01:43;18.50;99.90
48535;DHT22;34323;52.022;5.686;2023-05-31T07:04:09;18.40;99.90
48535;DHT22;34323;52.022;5.686;2023-05-31T07:06:35;18.30;99.90
48535;DHT22;34323;52.022;5.686;2023-05-31T07:09:03;18.40;99.90
48535;DHT22;34323;52.022;5.686;2023-05-31T07:11:29;18.60;99.90
48535;DHT22;34323;52.022;5.686;2023-05-31T07:13:55;18.70;99.90
48535;DHT22;34323;52.022;5.686;2023-05-31T07:16:25;18.90;99.90
48535;DHT22;34323;52.022;5.686;2023-05-31T07:18:50;19.10;99.90
48535;DHT22;34323;52.022;5.686;2023-05-31T07:21:16;19.40;99.90
48535;DHT22;34323;52.022;5.686;2023-05-31T07:23:41;19.40;99.90
48535;DHT22;34323;52.022;5.686;2023-05-31T07:26:07;19.50;99.90
48535;DHT22;34323;52.022;5.686;2023-05-31T07:28:32;19.50;99.90
48535;DHT22;34323;52.022;5.686;2023-05-31T07:30:58;19.50;99.90
48535;DHT22;34323;52.022;5.686;2023-05-31T07:33:23;19.70;99.90
48535;DHT22;34323;52.022;5.686;2023-05-31T07:35:49;19.80;99.90
48535;DHT22;34323;52.022;5.686;2023-05-31T07:38:14;20.10;99.90
48535;DHT22;34323;52.022;5.686;2023-05-31T07:40:40;20.30;99.90
48535;DHT22;34323;52.022;5.686;2023-05-31T07:43:08;20.50;99.90
48535;DHT22;34323;52.022;5.686;2023-05-31T07:45:36;20.60;99.90
48535;DHT22;34323;52.022;5.686;2023-05-31T07:48:01;20.60;99.90
48535;DHT22;34323;52.022;5.686;2023-05-31T07:50:27;21.00;99.90
48535;DHT22;34323;52.022;5.686;2023-05-31T07:52:52;21.10;99.90
48535;DHT22;34323;52.022;5.686;2023-05-31T07:55:18;21.20;99.90
48535;DHT22;34323;52.022;5.686;2023-05-31T07:57:44;21.20;99.90
48535;DHT22;34323;52.022;5.686;2023-05-31T08:00:10;21.00;99.90
48535;DHT22;34323;52.022;5.686;2023-05-31T08:02:39;20.90;99.90
48535;DHT22;34323;52.022;5.686;2023-05-31T08:05:04;21.00;99.90
48535;DHT22;34323;52.022;5.686;2023-05-31T08:07:31;21.10;99.90
48535;DHT22;34323;52.022;5.686;2023-05-31T08:09:56;21.20;99.90
48535;DHT22;34323;52.022;5.686;2023-05-31T08:12:22;21.50;99.90
48535;DHT22;34323;52.022;5.686;2023-05-31T08:14:47;21.80;99.90
48535;DHT22;34323;52.022;5.686;2023-05-31T08:17:13;21.90;99.90
48535;DHT22;34323;52.022;5.686;2023-05-31T08:19:38;21.90;99.90
48535;DHT22;34323;52.022;5.686;2023-05-31T08:22:04;22.00;99.90
48535;DHT22;34323;52.022;5.686;2023-05-31T08:24:30;21.90;99.90
48535;DHT22;34323;52.022;5.686;2023-05-31T08:26:55;22.00;99.90
48535;DHT22;34323;52.022;5.686;2023-05-31T08:29:22;22.10;99.90
48535;DHT22;34323;52.022;5.686;2023-05-31T08:31:48;22.20;99.90
48535;DHT22;34323;52.022;5.686;2023-05-31T08:34:13;22.30;99.90
48535;DHT22;34323;52.022;5.686;2023-05-31T08:36:39;22.20;99.90
48535;DHT22;34323;52.022;5.686;2023-05-31T08:39:06;22.30;99.90
48535;DHT22;34323;52.022;5.686;2023-05-31T08:41:38;22.50;99.90
48535;DHT22;34323;52.022;5.686;2023-05-31T08:44:08;22.50;99.90
48535;DHT22;34323;52.022;5.686;2023-05-31T08:46:34;22.90;99.90
48535;DHT22;34323;52.022;5.686;2023-05-31T08:49:05;23.30;99.90
48535;DHT22;34323;52.022;5.686;2023-05-31T08:51:34;23.30;99.90
48535;DHT22;34323;52.022;5.686;2023-05-31T08:54:02;23.40;99.90
48535;DHT22;34323;52.022;5.686;2023-05-31T08:56:28;23.80;99.90
48535;DHT22;34323;52.022;5.686;2023-05-31T08:58:54;24.00;99.90
48535;DHT22;34323;52.022;5.686;2023-05-31T09:01:20;24.30;99.90
48535;DHT22;34323;52.022;5.686;2023-05-31T09:03:46;24.40;99.90
48535;DHT22;34323;52.022;5.686;2023-05-31T09:06:12;24.50;99.90
48535;DHT22;34323;52.022;5.686;2023-05-31T09:08:38;24.80;99.90
48535;DHT22;34323;52.022;5.686;2023-05-31T09:11:04;25.20;99.90
48535;DHT22;34323;52.022;5.686;2023-05-31T09:13:31;25.10;99.90
48535;DHT22;34323;52.022;5.686;2023-05-31T09:15:57;25.30;99.90
48535;DHT22;34323;52.022;5.686;2023-05-31T09:18:23;25.70;99.90
48535;DHT22;34323;52.022;5.686;2023-05-31T09:20:55;25.60;99.90
48535;DHT22;34323;52.022;5.686;2023-05-31T09:23:21;25.80;99.90
48535;DHT22;34323;52.022;5.686;2023-05-31T09:25:51;26.00;99.90
48535;DHT22;34323;52.022;5.686;2023-05-31T09:28:18;26.00;99.90
48535;DHT22;34323;52.022;5.686;2023-05-31T09:30:44;26.00;99.90
48535;DHT22;34323;52.022;5.686;2023-05-31T09:33:12;26.10;99.90
48535;DHT22;34323;52.022;5.686;2023-05-31T09:35:37;26.20;99.90
48535;DHT22;34323;52.022;5.686;2023-05-31T09:38:04;26.40;99.90
48535;DHT22;34323;52.022;5.686;2023-05-31T09:40:31;26.20;99.90
48535;DHT22;34323;52.022;5.686;2023-05-31T09:42:58;26.30;99.90
48535;DHT22;34323;52.022;5.686;2023-05-31T09:45:24;26.20;99.90
48535;DHT22;34323;52.022;5.686;2023-05-31T09:47:51;26.40;99.90
48535;DHT22;34323;52.022;5.686;2023-05-31T09:50:21;26.80;99.90
48535;DHT22;34323;52.022;5.686;2023-05-31T09:52:49;27.00;99.90
48535;DHT22;34323;52.022;5.686;2023-05-31T09:55:17;27.10;99.90
48535;DHT22;34323;52.022;5.686;2023-05-31T09:57:44;27.10;99.90
48535;DHT22;34323;52.022;5.686;2023-05-31T10:00:17;27.30;99.90
48535;DHT22;34323;52.022;5.686;2023-05-31T10:02:50;27.60;99.90
48535;DHT22;34323;52.022;5.686;2023-05-31T10:05:17;27.70;99.90
48535;DHT22;34323;52.022;5.686;2023-05-31T10:07:50;27.60;99.90
48535;DHT22;34323;52.022;5.686;2023-05-31T10:10:16;27.50;99.90
48535;DHT22;34323;52.022;5.686;2023-05-31T10:15:25;27.90;99.90
48535;DHT22;34323;52.022;5.686;2023-05-31T10:17:56;27.80;99.90
48535;DHT22;34323;52.022;5.686;2023-05-31T10:20:25;27.80;99.90
48535;DHT22;34323;52.022;5.686;2023-05-31T10:22:57;27.80;99.90
48535;DHT22;34323;52.022;5.686;2023-05-31T10:25:32;27.80;99.90
48535;DHT22;34323;52.022;5.686;2023-05-31T10:28:01;27.80;99.90
48535;DHT22;34323;52.022;5.686;2023-05-31T10:30:34;28.20;99.90
48535;DHT22;34323;52.022;5.686;2023-05-31T10:33:06;28.40;99.90
48535;DHT22;34323;52.022;5.686;2023-05-31T10:35:32;28.50;99.90
48535;DHT22;34323;52.022;5.686;2023-05-31T10:38:00;28.60;99.90
48535;DHT22;34323;52.022;5.686;2023-05-31T10:40:37;28.80;99.90
48535;DHT22;34323;52.022;5.686;2023-05-31T10:43:32;28.90;99.90
48535;DHT22;34323;52.022;5.686;2023-05-31T10:46:06;28.70;99.90
48535;DHT22;34323;52.022;5.686;2023-05-31T10:48:52;28.70;99.90
48535;DHT22;34323;52.022;5.686;2023-05-31T10:51:18;28.90;99.90
48535;DHT22;34323;52.022;5.686;2023-05-31T10:53:45;29.00;99.90
48535;DHT22;34323;52.022;5.686;2023-05-31T10:56:13;29.10;99.90
48535;DHT22;34323;52.022;5.686;2023-05-31T10:58:43;29.40;99.90
48535;DHT22;34323;52.022;5.686;2023-05-31T11:01:14;29.30;99.90
48535;DHT22;34323;52.022;5.686;2023-05-31T11:03:51;29.10;99.90
48535;DHT22;34323;52.022;5.686;2023-05-31T11:06:25;29.30;99.90
48535;DHT22;34323;52.022;5.686;2023-05-31T11:09:02;29.20;99.90
48535;DHT22;34323;52.022;5.686;2023-05-31T11:14:03;29.70;99.90
48535;DHT22;34323;52.022;5.686;2023-05-31T11:16:32;30.00;99.60
48535;DHT22;34323;52.022;5.686;2023-05-31T11:19:07;30.10;99.30
48535;DHT22;34323;52.022;5.686;2023-05-31T11:21:55;30.30;99.50
48535;DHT22;34323;52.022;5.686;2023-05-31T11:24:31;30.50;99.90
48535;DHT22;34323;52.022;5.686;2023-05-31T11:26:58;30.60;99.10
48535;DHT22;34323;52.022;5.686;2023-05-31T11:32:12;30.60;98.50
48535;DHT22;34323;52.022;5.686;2023-05-31T11:34:54;30.60;98.50
48535;DHT22;34323;52.022;5.686;2023-05-31T11:37:22;30.50;99.90
48535;DHT22;34323;52.022;5.686;2023-05-31T11:39:48;30.50;99.80
48535;DHT22;34323;52.022;5.686;2023-05-31T11:42:15;30.50;99.00
48535;DHT22;34323;52.022;5.686;2023-05-31T11:44:43;30.50;98.80
48535;DHT22;34323;52.022;5.686;2023-05-31T11:47:10;30.50;99.10
48535;DHT22;34323;52.022;5.686;2023-05-31T11:49:37;30.50;99.30
48535;DHT22;34323;52.022;5.686;2023-05-31T11:52:03;30.40;99.60
48535;DHT22;34323;52.022;5.686;2023-05-31T11:54:33;30.60;99.60
48535;DHT22;34323;52.022;5.686;2023-05-31T11:57:04;30.70;99.70
48535;DHT22;34323;52.022;5.686;2023-05-31T11:59:33;30.90;99.50
48535;DHT22;34323;52.022;5.686;2023-05-31T12:02:00;31.30;99.20
48535;DHT22;34323;52.022;5.686;2023-05-31T12:04:36;31.40;98.80
48535;DHT22;34323;52.022;5.686;2023-05-31T12:07:06;31.50;99.00
48535;DHT22;34323;52.022;5.686;2023-05-31T12:09:33;31.20;99.20
48535;DHT22;34323;52.022;5.686;2023-05-31T12:12:00;30.90;99.40
48535;DHT22;34323;52.022;5.686;2023-05-31T12:14:28;30.80;99.30
48535;DHT22;34323;52.022;5.686;2023-05-31T12:16:54;31.00;99.20
48535;DHT22;34323;52.022;5.686;2023-05-31T12:19:20;31.20;99.00
48535;DHT22;34323;52.022;5.686;2023-05-31T12:21:46;31.40;98.80
48535;DHT22;34323;52.022;5.686;2023-05-31T12:24:13;31.70;98.70
48535;DHT22;34323;52.022;5.686;2023-05-31T12:26:39;31.80;98.50
48535;DHT22;34323;52.022;5.686;2023-05-31T12:29:05;31.90;98.50
48535;DHT22;34323;52.022;5.686;2023-05-31T12:31:34;31.80;97.50
48535;DHT22;34323;52.022;5.686;2023-05-31T12:34:13;31.90;98.30
48535;DHT22;34323;52.022;5.686;2023-05-31T12:36:45;32.10;98.60
48535;DHT22;34323;52.022;5.686;2023-05-31T12:39:13;31.80;98.10
48535;DHT22;34323;52.022;5.686;2023-05-31T12:41:44;31.90;98.10
48535;DHT22;34323;52.022;5.686;2023-05-31T12:44:15;31.70;98.10
48535;DHT22;34323;52.022;5.686;2023-05-31T12:46:46;31.70;99.00
48535;DHT22;34323;52.022;5.686;2023-05-31T12:49:24;31.80;98.50
48535;DHT22;34323;52.022;5.686;2023-05-31T12:54:32;31.60;98.60
48535;DHT22;34323;52.022;5.686;2023-05-31T12:57:00;31.80;97.80
48535;DHT22;34323;52.022;5.686;2023-05-31T12:59:29;31.90;97.10
48535;DHT22;34323;52.022;5.686;2023-05-31T13:01:55;31.90;97.30
48535;DHT22;34323;52.022;5.686;2023-05-31T13:04:22;32.00;98.00
48535;DHT22;34323;52.022;5.686;2023-05-31T13:06:47;32.40;98.30
48535;DHT22;34323;52.022;5.686;2023-05-31T13:09:13;32.30;97.90
48535;DHT22;34323;52.022;5.686;2023-05-31T13:11:39;32.40;98.60
48535;DHT22;34323;52.022;5.686;2023-05-31T13:14:08;32.40;98.20
48535;DHT22;34323;52.022;5.686;2023-05-31T13:16:34;32.80;98.10
48535;DHT22;34323;52.022;5.686;2023-05-31T13:19:01;33.10;98.20
48535;DHT22;34323;52.022;5.686;2023-05-31T13:21:28;33.40;98.00
48535;DHT22;34323;52.022;5.686;2023-05-31T13:23:54;33.60;98.60
48535;DHT22;34323;52.022;5.686;2023-05-31T13:26:20;33.60;98.20
48535;DHT22;34323;52.022;5.686;2023-05-31T13:28:47;33.90;97.90
48535;DHT22;34323;52.022;5.686;2023-05-31T13:31:13;33.90;96.60
48535;DHT22;34323;52.022;5.686;2023-05-31T13:33:39;34.10;98.10
48535;DHT22;34323;52.022;5.686;2023-05-31T13:36:04;34.80;97.40
48535;DHT22;34323;52.022;5.686;2023-05-31T13:38:30;35.20;96.50
48535;DHT22;34323;52.022;5.686;2023-05-31T13:40:56;35.50;96.70
48535;DHT22;34323;52.022;5.686;2023-05-31T13:43:22;35.80;96.40
48535;DHT22;34323;52.022;5.686;2023-05-31T13:45:51;36.00;96.60
48535;DHT22;34323;52.022;5.686;2023-05-31T13:48:18;36.90;96.90
48535;DHT22;34323;52.022;5.686;2023-05-31T13:50:44;37.70;96.10
48535;DHT22;34323;52.022;5.686;2023-05-31T13:53:09;38.40;95.90
48535;DHT22;34323;52.022;5.686;2023-05-31T13:55:36;38.90;96.10
48535;DHT22;34323;52.022;5.686;2023-05-31T13:58:03;39.60;95.80
48535;DHT22;34323;52.022;5.686;2023-05-31T14:00:30;40.30;94.40
48535;DHT22;34323;52.022;5.686;2023-05-31T14:02:55;40.70;95.10
48535;DHT22;34323;52.022;5.686;2023-05-31T14:05:21;41.10;94.70
48535;DHT22;34323;52.022;5.686;2023-05-31T14:07:47;40.90;95.10
48535;DHT22;34323;52.022;5.686;2023-05-31T14:10:14;41.70;94.80
48535;DHT22;34323;52.022;5.686;2023-05-31T14:12:40;41.80;93.80
48535;DHT22;34323;52.022;5.686;2023-05-31T14:15:07;41.90;93.90
48535;DHT22;34323;52.022;5.686;2023-05-31T14:17:33;42.30;93.40
48535;DHT22;34323;52.022;5.686;2023-05-31T14:19:59;42.20;93.10
48535;DHT22;34323;52.022;5.686;2023-05-31T14:22:24;41.60;93.00
48535;DHT22;34323;52.022;5.686;2023-05-31T14:24:50;41.20;93.70
48535;DHT22;34323;52.022;5.686;2023-05-31T14:27:16;41.30;93.60
48535;DHT22;34323;52.022;5.686;2023-05-31T14:29:44;41.40;93.90
48535;DHT22;34323;52.022;5.686;2023-05-31T14:32:10;41.40;93.20
48535;DHT22;34323;52.022;5.686;2023-05-31T14:34:38;41.40;93.30
48535;DHT22;34323;52.022;5.686;2023-05-31T14:37:04;41.50;93.10
48535;DHT22;34323;52.022;5.686;2023-05-31T14:39:30;41.70;92.90
48535;DHT22;34323;52.022;5.686;2023-05-31T14:41:57;41.70;93.50
48535;DHT22;34323;52.022;5.686;2023-05-31T14:44:22;41.40;92.40
48535;DHT22;34323;52.022;5.686;2023-05-31T14:46:48;40.60;93.00
48535;DHT22;34323;52.022;5.686;2023-05-31T14:49:13;40.20;92.40
48535;DHT22;34323;52.022;5.686;2023-05-31T14:51:39;40.10;92.80
48535;DHT22;34323;52.022;5.686;2023-05-31T14:54:04;40.00;92.70
48535;DHT22;34323;52.022;5.686;2023-05-31T14:56:30;40.20;92.60
48535;DHT22;34323;52.022;5.686;2023-05-31T14:58:56;39.80;92.50
48535;DHT22;34323;52.022;5.686;2023-05-31T15:01:21;39.90;92.40
48535;DHT22;34323;52.022;5.686;2023-05-31T15:03:47;39.80;92.90
48535;DHT22;34323;52.022;5.686;2023-05-31T15:06:13;39.60;92.70
48535;DHT22;34323;52.022;5.686;2023-05-31T15:08:39;39.20;93.30
48535;DHT22;34323;52.022;5.686;2023-05-31T15:11:04;39.30;92.90
48535;DHT22;34323;52.022;5.686;2023-05-31T15:13:30;39.30;92.80
48535;DHT22;34323;52.022;5.686;2023-05-31T15:15:56;38.80;92.10
48535;DHT22;34323;52.022;5.686;2023-05-31T15:18:21;38.50;93.20
48535;DHT22;34323;52.022;5.686;2023-05-31T15:20:47;38.10;93.10
48535;DHT22;34323;52.022;5.686;2023-05-31T15:23:12;37.90;93.40
48535;DHT22;34323;52.022;5.686;2023-05-31T15:25:38;37.40;93.90
48535;DHT22;34323;52.022;5.686;2023-05-31T15:28:03;37.20;93.20
48535;DHT22;34323;52.022;5.686;2023-05-31T15:30:29;36.80;93.10
48535;DHT22;34323;52.022;5.686;2023-05-31T15:32:55;36.30;93.60
48535;DHT22;34323;52.022;5.686;2023-05-31T15:35:21;36.10;93.70
48535;DHT22;34323;52.022;5.686;2023-05-31T15:37:46;35.60;93.60
48535;DHT22;34323;52.022;5.686;2023-05-31T15:40:12;35.40;94.00
48535;DHT22;34323;52.022;5.686;2023-05-31T15:42:37;35.20;93.30
48535;DHT22;34323;52.022;5.686;2023-05-31T15:45:03;34.70;93.50